createdAt,value
2017-01-19T00:00:04.260Z,-3.38
2017-01-19T00:00:44.851Z,-3.37
2017-01-19T00:01:25.422Z,-3.45
2017-01-19T00:02:06.070Z,-3.45
2017-01-19T00:02:46.666Z,-3.35
2017-01-19T00:03:28.284Z,-3.3
2017-01-19T00:04:08.837Z,-3.38
2017-01-19T00:04:49.534Z,-3.31
2017-01-19T00:05:30.191Z,-3.31
2017-01-19T00:06:10.790Z,-3.38
2017-01-19T00:06:51.368Z,-3.34
2017-01-19T00:07:32.028Z,-3.28
2017-01-19T00:08:13.617Z,-3.31
2017-01-19T00:08:54.228Z,-3.34
2017-01-19T00:09:34.807Z,-3.28
2017-01-19T00:10:15.441Z,-3.31
2017-01-19T00:10:56.152Z,-3.34
2017-01-19T00:11:36.745Z,-3.34
2017-01-19T00:12:17.304Z,-3.3
2017-01-19T00:12:57.966Z,-3.31
2017-01-19T00:13:38.670Z,-3.31
2017-01-19T00:14:19.229Z,-3.41
2017-01-19T00:14:59.828Z,-3.45
2017-01-19T00:15:40.452Z,-3.41
2017-01-19T00:16:21.019Z,-3.4
2017-01-19T00:17:01.679Z,-3.38
2017-01-19T00:17:42.325Z,-3.38
2017-01-19T00:18:22.965Z,-3.4
2017-01-19T00:19:03.643Z,-3.48
2017-01-19T00:19:44.368Z,-3.4
2017-01-19T00:20:25.022Z,-3.45
2017-01-19T00:21:05.675Z,-3.34
2017-01-19T00:21:46.327Z,-3.38
2017-01-19T00:22:26.986Z,-3.37
2017-01-19T00:23:07.681Z,-3.45
2017-01-19T00:23:48.389Z,-3.35
2017-01-19T00:24:28.955Z,-3.38
2017-01-19T00:25:09.603Z,-3.38
2017-01-19T00:25:50.284Z,-3.35
2017-01-19T00:26:31.953Z,-3.31
2017-01-19T00:27:13.615Z,-3.35
2017-01-19T00:27:54.288Z,-3.3
2017-01-19T00:28:34.924Z,-3.31
2017-01-19T00:29:15.593Z,-3.3
2017-01-19T00:29:56.231Z,-3.37
2017-01-19T00:30:36.888Z,-3.35
2017-01-19T00:31:17.531Z,-3.27
2017-01-19T00:31:58.198Z,-3.27
2017-01-19T00:32:38.841Z,-3.28
2017-01-19T00:33:19.521Z,-3.31
2017-01-19T00:34:00.156Z,-3.22
2017-01-19T00:34:40.746Z,-3.31
2017-01-19T00:35:22.350Z,-3.23
2017-01-19T00:36:02.929Z,-3.25
2017-01-19T00:36:43.584Z,-3.17
2017-01-19T00:37:24.278Z,-3.31
2017-01-19T00:38:05.571Z,-3.19
2017-01-19T00:38:46.130Z,-3.2
2017-01-19T00:39:26.801Z,-3.23
2017-01-19T00:40:07.451Z,-3.23
2017-01-19T00:40:48.106Z,-3.23
2017-01-19T00:41:28.782Z,-3.22
2017-01-19T00:42:09.403Z,-3.19
2017-01-19T00:42:50.062Z,-3.23
2017-01-19T00:43:30.715Z,-3.17
2017-01-19T00:44:11.364Z,-3.22
2017-01-19T00:44:51.997Z,-3.2
2017-01-19T00:45:32.585Z,-3.33
2017-01-19T00:46:13.238Z,-3.3
2017-01-19T00:46:53.859Z,-3.23
2017-01-19T00:47:34.435Z,-3.31
2017-01-19T00:48:15.165Z,-3.38
2017-01-19T00:48:56.740Z,-3.34
2017-01-19T00:49:37.320Z,-3.34
2017-01-19T00:50:19.022Z,-3.4
2017-01-19T00:50:59.643Z,-3.44
2017-01-19T00:51:40.332Z,-3.4
2017-01-19T00:52:20.949Z,-3.38
2017-01-19T00:53:01.605Z,-3.45
2017-01-19T00:53:42.241Z,-3.49
2017-01-19T00:54:22.888Z,-3.49
2017-01-19T00:55:03.555Z,-3.52
2017-01-19T00:55:44.231Z,-3.49
2017-01-19T00:56:24.879Z,-3.55
2017-01-19T00:57:05.499Z,-3.54
2017-01-19T00:57:46.182Z,-3.58
2017-01-19T00:58:26.806Z,-3.51
2017-01-19T00:59:07.470Z,-3.55
2017-01-19T00:59:48.067Z,-3.56
2017-01-19T01:00:28.710Z,-3.61
2017-01-19T01:01:09.362Z,-3.54
2017-01-19T01:01:50.022Z,-3.52
2017-01-19T01:02:30.678Z,-3.61
2017-01-19T01:03:11.323Z,-3.63
2017-01-19T01:03:51.981Z,-3.69
2017-01-19T01:04:32.633Z,-3.63
2017-01-19T01:05:13.286Z,-3.67
2017-01-19T01:05:53.934Z,-3.61
2017-01-19T01:06:34.587Z,-3.56
2017-01-19T01:07:15.245Z,-3.66
2017-01-19T01:07:55.899Z,-3.64
2017-01-19T01:08:36.548Z,-3.74
2017-01-19T01:09:17.203Z,-3.74
2017-01-19T01:09:57.849Z,-3.67
2017-01-19T01:10:38.503Z,-3.77
2017-01-19T01:11:19.160Z,-3.74
2017-01-19T01:11:59.810Z,-3.7
2017-01-19T01:12:40.468Z,-3.7
2017-01-19T01:13:21.122Z,-3.83
2017-01-19T01:14:01.768Z,-3.78
2017-01-19T01:14:42.361Z,-3.8
2017-01-19T01:15:22.917Z,-3.77
2017-01-19T01:16:03.516Z,-3.78
2017-01-19T01:16:44.112Z,-3.82
2017-01-19T01:17:24.675Z,-3.82
2017-01-19T01:18:05.331Z,-3.78
2017-01-19T01:18:45.933Z,-3.78
2017-01-19T01:19:26.515Z,-3.82
2017-01-19T01:20:07.072Z,-3.82
2017-01-19T01:20:47.763Z,-3.82
2017-01-19T01:21:28.399Z,-3.85
2017-01-19T01:22:09.082Z,-3.77
2017-01-19T01:22:49.720Z,-3.85
2017-01-19T01:23:30.361Z,-3.82
2017-01-19T01:24:11.008Z,-3.86
2017-01-19T01:24:51.597Z,-3.85
2017-01-19T01:25:32.186Z,-3.8
2017-01-19T01:26:12.761Z,-3.8
2017-01-19T01:26:53.415Z,-3.85
2017-01-19T01:27:34.032Z,-3.82
2017-01-19T01:28:14.600Z,-3.8
2017-01-19T01:28:55.166Z,-3.77
2017-01-19T01:29:35.838Z,-3.8
2017-01-19T01:30:16.456Z,-3.74
2017-01-19T01:30:57.006Z,-3.82
2017-01-19T01:31:37.685Z,-3.75
2017-01-19T01:32:18.310Z,-3.82
2017-01-19T01:32:58.926Z,-3.8
2017-01-19T01:33:39.542Z,-3.75
2017-01-19T01:34:20.162Z,-3.8
2017-01-19T01:35:00.741Z,-3.77
2017-01-19T01:35:42.418Z,-3.8
2017-01-19T01:36:23.048Z,-3.78
2017-01-19T01:37:03.617Z,-3.74
2017-01-19T01:37:44.267Z,-3.72
2017-01-19T01:38:24.904Z,-3.75
2017-01-19T01:39:05.507Z,-3.77
2017-01-19T01:39:46.127Z,-3.82
2017-01-19T01:40:26.861Z,-3.72
2017-01-19T01:41:07.449Z,-3.8
2017-01-19T01:41:48.086Z,-3.72
2017-01-19T01:42:28.741Z,-3.82
2017-01-19T01:43:09.411Z,-3.75
2017-01-19T01:43:50.043Z,-3.8
2017-01-19T01:44:30.703Z,-3.74
2017-01-19T01:45:11.290Z,-3.7
2017-01-19T01:45:51.883Z,-3.86
2017-01-19T01:46:32.531Z,-3.8
2017-01-19T01:47:13.098Z,-3.82
2017-01-19T01:47:53.700Z,-3.74
2017-01-19T01:48:34.285Z,-3.72
2017-01-19T01:49:14.856Z,-3.74
2017-01-19T01:49:55.529Z,-3.82
2017-01-19T01:50:36.215Z,-3.7
2017-01-19T01:51:16.803Z,-3.7
2017-01-19T01:51:57.385Z,-3.67
2017-01-19T01:52:38.032Z,-3.7
2017-01-19T01:53:18.621Z,-3.72
2017-01-19T01:53:59.208Z,-3.74
2017-01-19T01:54:39.764Z,-3.74
2017-01-19T01:55:20.427Z,-3.74
2017-01-19T01:56:01.076Z,-3.74
2017-01-19T01:56:41.731Z,-3.63
2017-01-19T01:57:22.394Z,-3.75
2017-01-19T01:58:03.047Z,-3.64
2017-01-19T01:58:43.708Z,-3.75
2017-01-19T01:59:24.342Z,-3.72
2017-01-19T02:00:04.985Z,-3.67
2017-01-19T02:00:45.568Z,-3.69
2017-01-19T02:01:26.207Z,-3.67
2017-01-19T02:02:06.840Z,-3.74
2017-01-19T02:02:47.416Z,-3.69
2017-01-19T02:03:28.081Z,-3.74
2017-01-19T02:04:08.700Z,-3.72
2017-01-19T02:04:49.300Z,-3.69
2017-01-19T02:05:30.962Z,-3.67
2017-01-19T02:06:11.583Z,-3.63
2017-01-19T02:06:52.150Z,-3.63
2017-01-19T02:07:32.807Z,-3.56
2017-01-19T02:08:13.439Z,-3.59
2017-01-19T02:08:54.004Z,-3.63
2017-01-19T02:09:34.662Z,-3.72
2017-01-19T02:10:15.289Z,-3.69
2017-01-19T02:10:55.861Z,-3.59
2017-01-19T02:11:36.519Z,-3.59
2017-01-19T02:12:17.100Z,-3.66
2017-01-19T02:12:57.708Z,-3.59
2017-01-19T02:13:38.286Z,-3.61
2017-01-19T02:14:18.918Z,-3.58
2017-01-19T02:14:59.513Z,-3.63
2017-01-19T02:15:40.113Z,-3.58
2017-01-19T02:16:20.672Z,-3.56
2017-01-19T02:17:01.332Z,-3.58
2017-01-19T02:17:42.947Z,-3.59
2017-01-19T02:18:23.544Z,-3.59
2017-01-19T02:19:04.127Z,-3.59
2017-01-19T02:19:44.763Z,-3.52
2017-01-19T02:20:25.398Z,-3.52
2017-01-19T02:21:05.967Z,-3.51
2017-01-19T02:21:46.617Z,-3.55
2017-01-19T02:22:27.255Z,-3.52
2017-01-19T02:23:07.825Z,-3.59
2017-01-19T02:23:48.467Z,-3.59
2017-01-19T02:24:29.118Z,-3.48
2017-01-19T02:25:09.772Z,-3.51
2017-01-19T02:25:50.423Z,-3.58
2017-01-19T02:26:31.080Z,-3.52
2017-01-19T02:27:11.729Z,-3.49
2017-01-19T02:27:52.378Z,-3.56
2017-01-19T02:28:33.034Z,-3.55
2017-01-19T02:29:13.689Z,-3.51
2017-01-19T02:29:54.249Z,-3.51
2017-01-19T02:30:34.931Z,-3.54
2017-01-19T02:31:15.604Z,-3.52
2017-01-19T02:31:56.199Z,-3.52
2017-01-19T02:32:36.822Z,-3.55
2017-01-19T02:33:17.436Z,-3.46
2017-01-19T02:33:58.117Z,-3.51
2017-01-19T02:34:38.816Z,-3.52
2017-01-19T02:35:19.388Z,-3.51
2017-01-19T02:36:00.039Z,-3.44
2017-01-19T02:36:40.680Z,-3.46
2017-01-19T02:37:21.332Z,-3.45
2017-01-19T02:38:02.011Z,-3.41
2017-01-19T02:38:42.643Z,-3.44
2017-01-19T02:39:23.292Z,-3.46
2017-01-19T02:40:03.944Z,-3.37
2017-01-19T02:40:44.620Z,-3.44
2017-01-19T02:41:25.288Z,-3.4
2017-01-19T02:42:05.920Z,-3.38
2017-01-19T02:42:46.579Z,-3.41
2017-01-19T02:43:27.211Z,-3.46
2017-01-19T02:44:07.888Z,-3.49
2017-01-19T02:44:48.541Z,-3.38
2017-01-19T02:45:29.184Z,-3.4
2017-01-19T02:46:09.843Z,-3.41
2017-01-19T02:46:50.508Z,-3.33
2017-01-19T02:47:31.148Z,-3.37
2017-01-19T02:48:11.782Z,-3.31
2017-01-19T02:48:52.448Z,-3.27
2017-01-19T02:49:34.105Z,-3.38
2017-01-19T02:50:14.749Z,-3.25
2017-01-19T02:50:55.315Z,-3.4
2017-01-19T02:51:35.968Z,-3.28
2017-01-19T02:52:16.608Z,-3.22
2017-01-19T02:52:57.186Z,-3.31
2017-01-19T02:53:37.848Z,-3.25
2017-01-19T02:54:18.468Z,-3.28
2017-01-19T02:54:59.037Z,-3.28
2017-01-19T02:55:39.686Z,-3.16
2017-01-19T02:56:20.279Z,-3.22
2017-01-19T02:57:00.872Z,-3.23
2017-01-19T02:57:41.429Z,-3.2
2017-01-19T02:58:22.088Z,-3.19
2017-01-19T02:59:02.686Z,-3.22
2017-01-19T02:59:43.280Z,-3.17
2017-01-19T03:00:23.850Z,-3.13
2017-01-19T03:01:04.502Z,-3.2
2017-01-19T03:01:45.177Z,-3.16
2017-01-19T03:02:25.823Z,-3.07
2017-01-19T03:03:06.454Z,-3.07
2017-01-19T03:03:47.123Z,-3.1
2017-01-19T03:04:27.774Z,-3.04
2017-01-19T03:05:08.422Z,-3.12
2017-01-19T03:05:49.072Z,-3.15
2017-01-19T03:06:29.735Z,-3.15
2017-01-19T03:07:10.372Z,-2.98
2017-01-19T03:07:51.033Z,-3.12
2017-01-19T03:08:31.683Z,-2.98
2017-01-19T03:09:12.329Z,-3.06
2017-01-19T03:09:52.999Z,-2.94
2017-01-19T03:10:33.685Z,-3.02
2017-01-19T03:11:14.281Z,-3.06
2017-01-19T03:11:54.847Z,-3.09
2017-01-19T03:12:36.516Z,-3.07
2017-01-19T03:13:17.122Z,-3.01
2017-01-19T03:13:57.711Z,-3.02
2017-01-19T03:14:38.301Z,-2.97
2017-01-19T03:15:18.945Z,-3.04
2017-01-19T03:15:59.627Z,-2.99
2017-01-19T03:16:40.204Z,-3.06
2017-01-19T03:17:20.779Z,-3.04
2017-01-19T03:18:01.378Z,-2.98
2017-01-19T03:18:41.976Z,-3.01
2017-01-19T03:19:22.543Z,-2.89
2017-01-19T03:20:03.187Z,-2.92
2017-01-19T03:20:43.869Z,-2.99
2017-01-19T03:21:24.495Z,-3.1
2017-01-19T03:22:05.145Z,-2.91
2017-01-19T03:22:45.828Z,-3.01
2017-01-19T03:23:26.472Z,-2.97
2017-01-19T03:24:07.205Z,-3.01
2017-01-19T03:24:47.789Z,-2.98
2017-01-19T03:25:28.469Z,-2.94
2017-01-19T03:26:09.062Z,-2.95
2017-01-19T03:26:49.633Z,-2.97
2017-01-19T03:27:30.291Z,-2.98
2017-01-19T03:28:10.984Z,-2.97
2017-01-19T03:28:51.572Z,-2.98
2017-01-19T03:29:32.143Z,-2.94
2017-01-19T03:30:12.875Z,-2.97
2017-01-19T03:30:53.440Z,-2.92
2017-01-19T03:31:34.110Z,-2.97
2017-01-19T03:32:14.742Z,-2.92
2017-01-19T03:32:55.407Z,-2.97
2017-01-19T03:33:36.065Z,-2.94
2017-01-19T03:34:16.717Z,-2.94
2017-01-19T03:34:57.367Z,-2.91
2017-01-19T03:35:37.954Z,-3.01
2017-01-19T03:36:19.570Z,-3.01
2017-01-19T03:37:00.141Z,-2.91
2017-01-19T03:37:40.829Z,-2.97
2017-01-19T03:38:21.493Z,-2.94
2017-01-19T03:39:02.081Z,-2.95
2017-01-19T03:39:42.662Z,-2.97
2017-01-19T03:40:23.309Z,-2.94
2017-01-19T03:41:03.935Z,-2.98
2017-01-19T03:41:44.488Z,-2.98
2017-01-19T03:42:25.169Z,-2.95
2017-01-19T03:43:05.791Z,-3.01
2017-01-19T03:43:46.378Z,-2.94
2017-01-19T03:44:27.022Z,-2.91
2017-01-19T03:45:07.648Z,-2.98
2017-01-19T03:45:48.219Z,-2.99
2017-01-19T03:46:28.859Z,-2.94
2017-01-19T03:47:09.459Z,-2.95
2017-01-19T03:47:50.053Z,-2.97
2017-01-19T03:48:30.634Z,-2.94
2017-01-19T03:49:11.287Z,-2.95
2017-01-19T03:49:51.857Z,-3.01
2017-01-19T03:50:32.530Z,-2.98
2017-01-19T03:51:13.179Z,-2.99
2017-01-19T03:51:53.822Z,-2.98
2017-01-19T03:52:34.483Z,-2.99
2017-01-19T03:53:15.137Z,-2.98
2017-01-19T03:53:55.788Z,-2.92
2017-01-19T03:54:36.430Z,-2.95
2017-01-19T03:55:17.088Z,-2.97
2017-01-19T03:55:57.743Z,-2.97
2017-01-19T03:56:38.390Z,-3.09
2017-01-19T03:57:19.055Z,-2.97
2017-01-19T03:57:59.714Z,-2.99
2017-01-19T03:58:40.362Z,-3.04
2017-01-19T03:59:21.029Z,-3.02
2017-01-19T04:00:01.606Z,-3.02
2017-01-19T04:00:42.184Z,-3.02
2017-01-19T04:01:22.824Z,-2.98
2017-01-19T04:02:03.416Z,-3.09
2017-01-19T04:02:44.115Z,-2.98
2017-01-19T04:03:24.689Z,-3.09
2017-01-19T04:04:05.325Z,-3.02
2017-01-19T04:04:45.927Z,-3.02
2017-01-19T04:05:26.516Z,-3.04
2017-01-19T04:06:07.069Z,-2.98
2017-01-19T04:06:47.756Z,-2.97
2017-01-19T04:07:28.403Z,-2.97
2017-01-19T04:08:09.051Z,-3.01
2017-01-19T04:08:49.690Z,-2.95
2017-01-19T04:09:31.086Z,-2.92
2017-01-19T04:10:11.733Z,-2.92
2017-01-19T04:10:52.384Z,-2.95
2017-01-19T04:11:33.028Z,-3.01
2017-01-19T04:12:13.685Z,-2.95
2017-01-19T04:12:54.349Z,-2.92
2017-01-19T04:13:36.026Z,-2.94
2017-01-19T04:14:16.670Z,-2.95
2017-01-19T04:14:57.318Z,-2.97
2017-01-19T04:15:37.970Z,-2.97
2017-01-19T04:16:18.623Z,-2.98
2017-01-19T04:16:59.278Z,-2.92
2017-01-19T04:17:40.965Z,-2.97
2017-01-19T04:18:21.607Z,-2.98
2017-01-19T04:19:02.261Z,-2.91
2017-01-19T04:19:42.926Z,-2.97
2017-01-19T04:20:23.576Z,-2.95
2017-01-19T04:21:04.221Z,-2.99
2017-01-19T04:21:44.873Z,-2.99
2017-01-19T04:22:26.548Z,-3.01
2017-01-19T04:23:07.210Z,-3.06
2017-01-19T04:23:47.866Z,-2.94
2017-01-19T04:24:28.517Z,-2.89
2017-01-19T04:25:09.163Z,-2.97
2017-01-19T04:25:49.795Z,-3.04
2017-01-19T04:26:30.366Z,-3.04
2017-01-19T04:27:12.050Z,-3.02
2017-01-19T04:27:52.678Z,-3.02
2017-01-19T04:28:33.248Z,-3.06
2017-01-19T04:29:13.899Z,-3.04
2017-01-19T04:29:55.553Z,-3.02
2017-01-19T04:30:36.100Z,-3.06
2017-01-19T04:31:16.786Z,-2.95
2017-01-19T04:31:57.372Z,-3.04
2017-01-19T04:32:37.966Z,-3.1
2017-01-19T04:33:18.532Z,-3.06
2017-01-19T04:33:59.193Z,-3.04
2017-01-19T04:34:39.776Z,-3.12
2017-01-19T04:35:20.373Z,-3.07
2017-01-19T04:36:00.950Z,-3.07
2017-01-19T04:36:41.598Z,-3.1
2017-01-19T04:37:22.187Z,-3.15
2017-01-19T04:38:02.776Z,-3.1
2017-01-19T04:38:43.355Z,-3.16
2017-01-19T04:39:24.010Z,-3.16
2017-01-19T04:40:04.698Z,-3.2
2017-01-19T04:40:45.281Z,-3.19
2017-01-19T04:41:25.858Z,-3.19
2017-01-19T04:42:06.520Z,-3.17
2017-01-19T04:42:47.203Z,-3.23
2017-01-19T04:43:27.875Z,-3.2
2017-01-19T04:44:08.363Z,-3.3
2017-01-19T04:44:49.024Z,-3.28
2017-01-19T04:45:30.677Z,-3.25
2017-01-19T04:46:11.224Z,-3.28
2017-01-19T04:46:51.905Z,-3.34
2017-01-19T04:47:32.534Z,-3.28
2017-01-19T04:48:13.102Z,-3.35
2017-01-19T04:48:53.767Z,-3.3
2017-01-19T04:49:34.393Z,-3.44
2017-01-19T04:50:14.962Z,-3.38
2017-01-19T04:50:55.702Z,-3.38
2017-01-19T04:51:36.268Z,-3.4
2017-01-19T04:52:16.918Z,-3.45
2017-01-19T04:52:57.569Z,-3.52
2017-01-19T04:53:39.262Z,-3.49
2017-01-19T04:54:19.897Z,-3.55
2017-01-19T04:55:00.566Z,-3.49
2017-01-19T04:55:42.234Z,-3.59
2017-01-19T04:56:22.893Z,-3.56
2017-01-19T04:57:03.546Z,-3.56
2017-01-19T04:57:44.192Z,-3.69
2017-01-19T04:58:24.842Z,-3.67
2017-01-19T04:59:05.489Z,-3.56
2017-01-19T04:59:46.146Z,-3.74
2017-01-19T05:00:26.781Z,-3.66
2017-01-19T05:01:07.369Z,-3.69
2017-01-19T05:01:48.009Z,-3.7
2017-01-19T05:02:28.637Z,-3.83
2017-01-19T05:03:09.203Z,-3.75
2017-01-19T05:03:49.861Z,-3.83
2017-01-19T05:04:30.496Z,-3.77
2017-01-19T05:05:11.078Z,-3.78
2017-01-19T05:05:51.753Z,-3.89
2017-01-19T05:06:32.349Z,-3.86
2017-01-19T05:07:12.916Z,-3.89
2017-01-19T05:07:53.571Z,-3.86
2017-01-19T05:08:34.202Z,-3.91
2017-01-19T05:09:14.772Z,-3.95
2017-01-19T05:09:55.430Z,-3.92
2017-01-19T05:10:36.059Z,-3.93
2017-01-19T05:11:17.739Z,-3.96
2017-01-19T05:11:58.388Z,-3.98
2017-01-19T05:12:40.069Z,-4.02
2017-01-19T05:13:20.722Z,-3.98
2017-01-19T05:14:01.371Z,-4.04
2017-01-19T05:14:42.023Z,-4.02
2017-01-19T05:15:22.589Z,-4.02
2017-01-19T05:16:03.255Z,-4.04
2017-01-19T05:16:43.876Z,-4.06
2017-01-19T05:17:24.436Z,-4.04
2017-01-19T05:18:05.008Z,-4.07
2017-01-19T05:18:45.657Z,-4.07
2017-01-19T05:19:26.227Z,-4.06
2017-01-19T05:20:06.835Z,-4.12
2017-01-19T05:20:47.491Z,-4.17
2017-01-19T05:21:28.140Z,-4.09
2017-01-19T05:22:08.792Z,-4.24
2017-01-19T05:22:49.445Z,-4.17
2017-01-19T05:23:30.102Z,-4.13
2017-01-19T05:24:10.750Z,-4.17
2017-01-19T05:24:51.406Z,-4.17
2017-01-19T05:25:31.990Z,-4.17
2017-01-19T05:26:12.623Z,-4.17
2017-01-19T05:26:54.242Z,-4.12
2017-01-19T05:27:35.859Z,-4.16
2017-01-19T05:28:16.437Z,-4.17
2017-01-19T05:28:57.147Z,-4.21
2017-01-19T05:29:37.774Z,-4.14
2017-01-19T05:30:18.364Z,-4.14
2017-01-19T05:30:59.042Z,-4.21
2017-01-19T05:31:39.676Z,-4.17
2017-01-19T05:32:20.325Z,-4.16
2017-01-19T05:33:00.980Z,-4.17
2017-01-19T05:33:41.633Z,-4.21
2017-01-19T05:34:22.282Z,-4.2
2017-01-19T05:35:03.959Z,-4.1
2017-01-19T05:35:44.610Z,-4.2
2017-01-19T05:36:25.267Z,-4.2
2017-01-19T05:37:05.915Z,-4.22
2017-01-19T05:37:46.570Z,-4.16
2017-01-19T05:38:27.225Z,-4.14
2017-01-19T05:39:07.896Z,-4.17
2017-01-19T05:39:48.536Z,-4.16
2017-01-19T05:40:29.098Z,-4.17
2017-01-19T05:41:09.773Z,-4.2
2017-01-19T05:41:50.438Z,-4.21
2017-01-19T05:42:31.037Z,-4.16
2017-01-19T05:43:11.623Z,-4.13
2017-01-19T05:43:52.266Z,-4.16
2017-01-19T05:44:33.881Z,-4.13
2017-01-19T05:45:14.467Z,-4.25
2017-01-19T05:45:55.033Z,-4.25
2017-01-19T05:46:35.692Z,-4.1
2017-01-19T05:47:16.359Z,-4.25
2017-01-19T05:47:57.970Z,-4.21
2017-01-19T05:48:38.584Z,-4.16
2017-01-19T05:49:19.236Z,-4.16
2017-01-19T05:49:59.875Z,-4.22
2017-01-19T05:50:40.525Z,-4.21
2017-01-19T05:51:21.077Z,-4.27
2017-01-19T05:52:01.730Z,-4.22
2017-01-19T05:52:42.367Z,-4.17
2017-01-19T05:53:22.948Z,-4.22
2017-01-19T05:54:03.605Z,-4.13
2017-01-19T05:54:44.236Z,-4.3
2017-01-19T05:55:24.806Z,-4.22
2017-01-19T05:56:05.449Z,-4.25
2017-01-19T05:56:46.092Z,-4.27
2017-01-19T05:57:26.770Z,-4.3
2017-01-19T05:58:07.416Z,-4.25
2017-01-19T05:58:48.067Z,-4.31
2017-01-19T05:59:28.720Z,-4.3
2017-01-19T06:00:10.446Z,-4.28
2017-01-19T06:00:51.054Z,-4.43
2017-01-19T06:01:31.698Z,-4.41
2017-01-19T06:02:12.363Z,-4.42
2017-01-19T06:02:53.022Z,-4.43
2017-01-19T06:03:33.660Z,-4.43
2017-01-19T06:04:14.302Z,-4.42
2017-01-19T06:04:54.968Z,-4.43
2017-01-19T06:05:35.603Z,-4.43
2017-01-19T06:06:16.271Z,-4.46
2017-01-19T06:06:56.932Z,-4.41
2017-01-19T06:07:38.604Z,-4.42
2017-01-19T06:08:19.274Z,-4.39
2017-01-19T06:08:59.908Z,-4.45
2017-01-19T06:09:40.568Z,-4.41
2017-01-19T06:10:21.207Z,-4.45
2017-01-19T06:11:01.853Z,-4.52
2017-01-19T06:11:42.493Z,-4.43
2017-01-19T06:12:23.071Z,-4.49
2017-01-19T06:13:03.706Z,-4.45
2017-01-19T06:13:44.281Z,-4.42
2017-01-19T06:14:24.934Z,-4.52
2017-01-19T06:15:05.555Z,-4.46
2017-01-19T06:15:46.131Z,-4.48
2017-01-19T06:16:26.786Z,-4.43
2017-01-19T06:17:07.364Z,-4.45
2017-01-19T06:17:47.967Z,-4.42
2017-01-19T06:18:28.529Z,-4.49
2017-01-19T06:19:09.179Z,-4.42
2017-01-19T06:19:50.938Z,-4.43
2017-01-19T06:20:31.597Z,-4.43
2017-01-19T06:21:12.254Z,-4.41
2017-01-19T06:21:52.907Z,-4.43
2017-01-19T06:22:33.566Z,-4.41
2017-01-19T06:23:14.218Z,-4.42
2017-01-19T06:23:54.867Z,-4.42
2017-01-19T06:24:35.521Z,-4.49
2017-01-19T06:25:16.095Z,-4.31
2017-01-19T06:25:56.742Z,-4.31
2017-01-19T06:26:38.361Z,-4.28
2017-01-19T06:27:19.052Z,-4.31
2017-01-19T06:27:59.629Z,-4.28
2017-01-19T06:28:40.342Z,-4.14
2017-01-19T06:29:20.864Z,-4.22
2017-01-19T06:30:01.459Z,-4.22
2017-01-19T06:30:42.026Z,-4.16
2017-01-19T06:31:22.688Z,-4.2
2017-01-19T06:32:03.336Z,-4.16
2017-01-19T06:32:43.985Z,-4.07
2017-01-19T06:33:24.648Z,-4.14
2017-01-19T06:34:05.292Z,-4.2
2017-01-19T06:34:45.945Z,-4.12
2017-01-19T06:35:26.606Z,-4.04
2017-01-19T06:36:07.266Z,-4.09
2017-01-19T06:36:47.913Z,-4.09
2017-01-19T06:37:28.554Z,-4.04
2017-01-19T06:38:09.201Z,-4.02
2017-01-19T06:38:49.874Z,-4.02
2017-01-19T06:39:30.519Z,-4.03
2017-01-19T06:40:11.165Z,-4.03
2017-01-19T06:40:51.760Z,-3.96
2017-01-19T06:41:32.354Z,-3.95
2017-01-19T06:42:12.926Z,-3.99
2017-01-19T06:42:53.565Z,-3.98
2017-01-19T06:43:34.164Z,-3.91
2017-01-19T06:44:14.781Z,-3.89
2017-01-19T06:44:55.318Z,-3.91
2017-01-19T06:45:35.991Z,-3.88
2017-01-19T06:46:16.616Z,-3.83
2017-01-19T06:46:57.177Z,-3.88
2017-01-19T06:47:37.840Z,-3.77
2017-01-19T06:48:18.473Z,-3.78
2017-01-19T06:48:59.037Z,-3.74
2017-01-19T06:49:39.600Z,-3.8
2017-01-19T06:50:20.182Z,-3.72
2017-01-19T06:51:00.786Z,-3.74
2017-01-19T06:51:41.456Z,-3.74
2017-01-19T06:52:22.104Z,-3.69
2017-01-19T06:53:02.757Z,-3.67
2017-01-19T06:53:43.405Z,-3.7
2017-01-19T06:54:24.056Z,-3.69
2017-01-19T06:55:04.713Z,-3.64
2017-01-19T06:55:45.376Z,-3.69
2017-01-19T06:56:26.029Z,-3.69
2017-01-19T06:57:06.675Z,-3.74
2017-01-19T06:57:47.328Z,-3.7
2017-01-19T06:58:27.989Z,-3.7
2017-01-19T06:59:08.642Z,-3.7
2017-01-19T06:59:49.281Z,-3.66
2017-01-19T07:00:29.947Z,-3.66
2017-01-19T07:01:11.605Z,-3.67
2017-01-19T07:01:52.273Z,-3.67
2017-01-19T07:02:32.913Z,-3.69
2017-01-19T07:03:13.583Z,-3.67
2017-01-19T07:03:54.223Z,-3.67
2017-01-19T07:04:34.882Z,-3.63
2017-01-19T07:05:15.543Z,-3.66
2017-01-19T07:05:56.225Z,-3.58
2017-01-19T07:06:36.952Z,-3.67
2017-01-19T07:07:17.520Z,-3.56
2017-01-19T07:07:58.195Z,-3.55
2017-01-19T07:08:38.835Z,-3.58
2017-01-19T07:09:19.428Z,-3.63
2017-01-19T07:10:00.016Z,-3.59
2017-01-19T07:10:40.647Z,-3.59
2017-01-19T07:11:21.248Z,-3.63
2017-01-19T07:12:01.842Z,-3.56
2017-01-19T07:12:42.458Z,-3.52
2017-01-19T07:13:23.045Z,-3.59
2017-01-19T07:14:03.649Z,-3.54
2017-01-19T07:14:44.242Z,-3.54
2017-01-19T07:15:24.820Z,-3.45
2017-01-19T07:16:05.468Z,-3.49
2017-01-19T07:16:46.055Z,-3.45
2017-01-19T07:17:26.650Z,-3.48
2017-01-19T07:18:07.227Z,-3.49
2017-01-19T07:18:47.879Z,-3.44
2017-01-19T07:19:28.474Z,-3.37
2017-01-19T07:20:09.164Z,-3.35
2017-01-19T07:20:49.729Z,-3.4
2017-01-19T07:21:30.387Z,-3.35
2017-01-19T07:22:10.969Z,-3.37
2017-01-19T07:22:51.564Z,-3.41
2017-01-19T07:23:32.140Z,-3.4
2017-01-19T07:24:12.816Z,-3.34
2017-01-19T07:24:53.484Z,-3.31
2017-01-19T07:25:34.076Z,-3.31
2017-01-19T07:26:15.754Z,-3.38
2017-01-19T07:26:56.508Z,-3.31
2017-01-19T07:27:37.265Z,-3.37
2017-01-19T07:28:17.918Z,-3.27
2017-01-19T07:28:58.571Z,-3.34
2017-01-19T07:29:39.221Z,-3.37
2017-01-19T07:30:19.875Z,-3.34
2017-01-19T07:31:00.529Z,-3.3
2017-01-19T07:31:41.181Z,-3.31
2017-01-19T07:32:21.836Z,-3.17
2017-01-19T07:33:02.481Z,-3.22
2017-01-19T07:33:43.139Z,-3.22
2017-01-19T07:34:23.708Z,-3.27
2017-01-19T07:35:04.343Z,-3.25
2017-01-19T07:35:44.996Z,-3.1
2017-01-19T07:36:25.647Z,-3.1
2017-01-19T07:37:06.301Z,-3.13
2017-01-19T07:37:46.954Z,-3.07
2017-01-19T07:38:27.608Z,-3.16
2017-01-19T07:39:08.264Z,-3.07
2017-01-19T07:39:48.917Z,-3.1
2017-01-19T07:40:29.876Z,-3.09
2017-01-19T07:41:10.529Z,-3.16
2017-01-19T07:41:51.178Z,-3.04
2017-01-19T07:42:31.830Z,-3.04
2017-01-19T07:43:12.999Z,-3.1
2017-01-19T07:43:53.655Z,-3.1
2017-01-19T07:44:34.308Z,-3.1
2017-01-19T07:45:14.952Z,-3.13
2017-01-19T07:45:55.773Z,-2.95
2017-01-19T07:46:36.365Z,-3.07
2017-01-19T07:47:17.049Z,-3.13
2017-01-19T07:47:57.686Z,-3.04
2017-01-19T07:48:38.353Z,-3.07
2017-01-19T07:49:18.945Z,-3.1
2017-01-19T07:49:59.542Z,-3.1
2017-01-19T07:50:40.182Z,-3.04
2017-01-19T07:51:20.870Z,-3.06
2017-01-19T07:52:02.530Z,-3.01
2017-01-19T07:52:43.162Z,-2.97
2017-01-19T07:53:23.860Z,-3.02
2017-01-19T07:54:04.489Z,-3.02
2017-01-19T07:54:45.134Z,-3.04
2017-01-19T07:55:26.465Z,-2.92
2017-01-19T07:56:07.064Z,-3.01
2017-01-19T07:56:47.701Z,-2.97
2017-01-19T07:57:28.371Z,-2.97
2017-01-19T07:58:09.024Z,-2.98
2017-01-19T07:58:49.688Z,-2.97
2017-01-19T07:59:30.311Z,-2.92
2017-01-19T08:00:10.980Z,-2.91
2017-01-19T08:00:51.618Z,-2.86
2017-01-19T08:01:32.271Z,-2.8
2017-01-19T08:02:12.931Z,-2.83
2017-01-19T08:02:53.591Z,-2.76
2017-01-19T08:03:34.214Z,-2.81
2017-01-19T08:04:14.903Z,-2.77
2017-01-19T08:04:55.526Z,-2.71
2017-01-19T08:05:36.205Z,-2.76
2017-01-19T08:06:17.803Z,-2.71
2017-01-19T08:06:58.401Z,-2.71
2017-01-19T08:07:38.979Z,-2.7
2017-01-19T08:08:19.627Z,-2.59
2017-01-19T08:09:00.223Z,-2.59
2017-01-19T08:09:40.812Z,-2.56
2017-01-19T08:10:21.456Z,-2.56
2017-01-19T08:11:02.044Z,-2.53
2017-01-19T08:11:43.697Z,-2.58
2017-01-19T08:12:24.409Z,-2.62
2017-01-19T08:13:05.003Z,-2.47
2017-01-19T08:13:45.662Z,-2.53
2017-01-19T08:14:26.315Z,-2.5
2017-01-19T08:15:06.984Z,-2.48
2017-01-19T08:15:47.618Z,-2.4
2017-01-19T08:16:28.290Z,-2.48
2017-01-19T08:17:08.915Z,-2.41
2017-01-19T08:17:49.575Z,-2.44
2017-01-19T08:18:30.218Z,-2.48
2017-01-19T08:19:10.877Z,-2.47
2017-01-19T08:19:51.520Z,-2.42
2017-01-19T08:20:32.176Z,-2.5
2017-01-19T08:21:12.827Z,-2.44
2017-01-19T08:21:53.493Z,-2.5
2017-01-19T08:22:34.142Z,-2.42
2017-01-19T08:23:14.790Z,-2.45
2017-01-19T08:23:55.543Z,-2.45
2017-01-19T08:24:36.202Z,-2.35
2017-01-19T08:25:16.852Z,-2.37
2017-01-19T08:25:57.530Z,-2.34
2017-01-19T08:26:39.182Z,-2.3
2017-01-19T08:27:19.840Z,-2.19
2017-01-19T08:28:00.493Z,-2.16
2017-01-19T08:28:43.188Z,-2.16
2017-01-19T08:29:23.839Z,-2.16
2017-01-19T08:30:04.421Z,-2.19
2017-01-19T08:30:45.068Z,-2.13
2017-01-19T08:31:25.712Z,-2.13
2017-01-19T08:32:07.382Z,-2.18
2017-01-19T08:32:48.048Z,-2.08
2017-01-19T08:33:28.703Z,-2.19
2017-01-19T08:34:09.352Z,-2.15
2017-01-19T08:34:50.007Z,-2.18
2017-01-19T08:35:30.660Z,-2.21
2017-01-19T08:36:11.310Z,-2.25
2017-01-19T08:36:51.969Z,-2.22
2017-01-19T08:37:32.620Z,-2.34
2017-01-19T08:38:13.267Z,-2.26
2017-01-19T08:38:53.928Z,-2.28
2017-01-19T08:39:34.642Z,-2.38
2017-01-19T08:40:15.252Z,-2.4
2017-01-19T08:40:55.886Z,-2.4
2017-01-19T08:41:36.541Z,-2.42
2017-01-19T08:42:17.169Z,-2.47
2017-01-19T08:42:57.831Z,-2.5
2017-01-19T08:43:38.525Z,-2.53
2017-01-19T08:44:19.138Z,-2.52
2017-01-19T08:44:59.786Z,-2.59
2017-01-19T08:45:40.429Z,-2.55